Terminal Aerodrome Forecast
Issued by NWS Albany, NY

Home | Current Version | Previous Version | Text Only | Print | Product List | Glossary On
Versions: 1 2 3 4 5 6 7 8 9 10 11 12 13 14 15 16 17 18 19 20
000
FTUS41 KALY 212300
TAFGFL
TAF
KGFL 212334Z 2200/2224 22006KT P6SM VCSH BKN040 BKN080
      TEMPO 2200/2203 28015G25KT 3SM -SHRA BR OVC025
     FM220300 24006KT P6SM SCT025 BKN035
     FM221400 29012G20KT P6SM SCT035 BKN045
     FM222300 28005KT P6SM SCT045=

USA.gov is the U.S. government's official web portal to all federal, state and local government web resources and services.